sensor_id;sensor_type;location;lat;lon;timestamp;P1;durP1;ratioP1;P2;durP2;ratioP2
33148;SDS011;19506;51.040;3.856;2022-07-23T01:29:54;6.30;;;3.93;;
33148;SDS011;19506;51.040;3.856;2022-07-23T01:32:21;5.65;;;4.10;;
33148;SDS011;19506;51.040;3.856;2022-07-23T01:34:47;5.65;;;3.95;;
33148;SDS011;19506;51.040;3.856;2022-07-23T01:37:13;9.60;;;4.05;;
33148;SDS011;19506;51.040;3.856;2022-07-23T01:39:39;6.68;;;4.57;;
33148;SDS011;19506;51.040;3.856;2022-07-23T01:42:04;6.15;;;4.10;;
33148;SDS011;19506;51.040;3.856;2022-07-23T01:44:30;6.53;;;4.20;;
33148;SDS011;19506;51.040;3.856;2022-07-23T01:46:56;5.15;;;4.20;;
33148;SDS011;19506;51.040;3.856;2022-07-23T01:49:22;6.03;;;4.55;;
33148;SDS011;19506;51.040;3.856;2022-07-23T01:51:48;8.60;;;4.53;;
33148;SDS011;19506;51.040;3.856;2022-07-23T01:54:26;4.05;;;3.38;;
33148;SDS011;19506;51.040;3.856;2022-07-23T01:56:53;8.48;;;4.60;;
33148;SDS011;19506;51.040;3.856;2022-07-23T01:59:18;7.28;;;4.32;;
33148;SDS011;19506;51.040;3.856;2022-07-23T02:01:44;10.43;;;4.53;;
33148;SDS011;19506;51.040;3.856;2022-07-23T02:04:10;8.07;;;4.82;;
33148;SDS011;19506;51.040;3.856;2022-07-23T02:06:36;5.95;;;5.07;;
33148;SDS011;19506;51.040;3.856;2022-07-23T02:09:01;7.40;;;4.55;;
33148;SDS011;19506;51.040;3.856;2022-07-23T02:11:27;8.43;;;5.03;;
33148;SDS011;19506;51.040;3.856;2022-07-23T02:13:53;6.68;;;4.43;;
33148;SDS011;19506;51.040;3.856;2022-07-23T02:16:18;5.32;;;4.07;;
33148;SDS011;19506;51.040;3.856;2022-07-23T02:18:44;7.63;;;4.22;;
33148;SDS011;19506;51.040;3.856;2022-07-23T02:21:11;9.27;;;4.60;;
33148;SDS011;19506;51.040;3.856;2022-07-23T02:23:37;6.75;;;3.97;;
33148;SDS011;19506;51.040;3.856;2022-07-23T02:26:03;7.35;;;4.63;;
33148;SDS011;19506;51.040;3.856;2022-07-23T02:28:28;5.00;;;4.20;;
33148;SDS011;19506;51.040;3.856;2022-07-23T02:30:54;8.80;;;4.25;;
33148;SDS011;19506;51.040;3.856;2022-07-23T02:33:20;6.80;;;4.18;;
33148;SDS011;19506;51.040;3.856;2022-07-23T02:35:45;5.18;;;4.45;;
33148;SDS011;19506;51.040;3.856;2022-07-23T02:38:11;6.32;;;4.32;;
33148;SDS011;19506;51.040;3.856;2022-07-23T02:40:37;4.22;;;3.65;;
33148;SDS011;19506;51.040;3.856;2022-07-23T02:43:03;9.00;;;4.30;;
33148;SDS011;19506;51.040;3.856;2022-07-23T02:45:29;6.22;;;4.57;;
33148;SDS011;19506;51.040;3.856;2022-07-23T02:47:54;6.03;;;4.50;;
33148;SDS011;19506;51.040;3.856;2022-07-23T02:50:20;6.18;;;4.80;;
33148;SDS011;19506;51.040;3.856;2022-07-23T02:52:46;5.00;;;4.30;;
33148;SDS011;19506;51.040;3.856;2022-07-23T02:55:11;5.93;;;4.20;;
33148;SDS011;19506;51.040;3.856;2022-07-23T02:57:37;4.82;;;4.18;;
33148;SDS011;19506;51.040;3.856;2022-07-23T03:00:04;8.50;;;4.30;;
33148;SDS011;19506;51.040;3.856;2022-07-23T03:02:31;7.55;;;4.70;;
33148;SDS011;19506;51.040;3.856;2022-07-23T03:04:57;7.32;;;4.35;;
33148;SDS011;19506;51.040;3.856;2022-07-23T03:07:22;5.88;;;4.70;;
33148;SDS011;19506;51.040;3.856;2022-07-23T03:09:48;7.85;;;4.72;;
33148;SDS011;19506;51.040;3.856;2022-07-23T03:12:14;7.32;;;3.90;;
33148;SDS011;19506;51.040;3.856;2022-07-23T03:14:40;7.10;;;4.75;;
33148;SDS011;19506;51.040;3.856;2022-07-23T03:17:06;5.30;;;4.13;;
33148;SDS011;19506;51.040;3.856;2022-07-23T03:19:32;6.63;;;4.53;;
33148;SDS011;19506;51.040;3.856;2022-07-23T03:21:58;8.63;;;5.10;;
33148;SDS011;19506;51.040;3.856;2022-07-23T03:24:24;4.75;;;4.25;;
33148;SDS011;19506;51.040;3.856;2022-07-23T03:27:09;5.25;;;4.13;;
33148;SDS011;19506;51.040;3.856;2022-07-23T03:29:35;7.10;;;4.43;;
33148;SDS011;19506;51.040;3.856;2022-07-23T03:32:02;3.95;;;3.38;;
33148;SDS011;19506;51.040;3.856;2022-07-23T03:34:28;6.82;;;3.83;;
33148;SDS011;19506;51.040;3.856;2022-07-23T03:36:54;4.13;;;3.33;;
33148;SDS011;19506;51.040;3.856;2022-07-23T03:39:19;5.57;;;3.63;;
33148;SDS011;19506;51.040;3.856;2022-07-23T03:41:45;5.25;;;4.00;;
33148;SDS011;19506;51.040;3.856;2022-07-23T03:44:11;5.50;;;3.88;;
33148;SDS011;19506;51.040;3.856;2022-07-23T03:46:36;4.10;;;3.70;;
33148;SDS011;19506;51.040;3.856;2022-07-23T03:49:02;6.07;;;3.97;;
33148;SDS011;19506;51.040;3.856;2022-07-23T03:51:28;8.88;;;4.15;;
33148;SDS011;19506;51.040;3.856;2022-07-23T03:53:53;4.97;;;3.95;;
33148;SDS011;19506;51.040;3.856;2022-07-23T03:56:20;8.05;;;4.22;;
33148;SDS011;19506;51.040;3.856;2022-07-23T03:58:47;9.32;;;3.97;;
33148;SDS011;19506;51.040;3.856;2022-07-23T04:01:12;8.38;;;4.22;;
33148;SDS011;19506;51.040;3.856;2022-07-23T04:03:39;6.13;;;4.05;;
33148;SDS011;19506;51.040;3.856;2022-07-23T04:06:05;8.48;;;4.43;;
33148;SDS011;19506;51.040;3.856;2022-07-23T04:08:31;4.63;;;3.47;;
33148;SDS011;19506;51.040;3.856;2022-07-23T04:10:57;9.07;;;4.18;;
33148;SDS011;19506;51.040;3.856;2022-07-23T04:13:22;5.10;;;3.95;;
33148;SDS011;19506;51.040;3.856;2022-07-23T04:15:48;13.27;;;4.18;;
33148;SDS011;19506;51.040;3.856;2022-07-23T04:18:15;6.78;;;4.85;;
33148;SDS011;19506;51.040;3.856;2022-07-23T04:20:42;8.68;;;4.45;;
33148;SDS011;19506;51.040;3.856;2022-07-23T04:23:11;8.55;;;3.92;;
33148;SDS011;19506;51.040;3.856;2022-07-23T04:25:37;9.13;;;4.35;;
33148;SDS011;19506;51.040;3.856;2022-07-23T04:28:03;5.32;;;3.83;;
33148;SDS011;19506;51.040;3.856;2022-07-23T04:30:29;5.78;;;3.42;;
33148;SDS011;19506;51.040;3.856;2022-07-23T04:32:55;6.15;;;3.95;;
33148;SDS011;19506;51.040;3.856;2022-07-23T04:35:20;5.70;;;4.00;;
33148;SDS011;19506;51.040;3.856;2022-07-23T04:37:46;6.97;;;4.63;;
33148;SDS011;19506;51.040;3.856;2022-07-23T04:40:12;4.93;;;4.10;;
33148;SDS011;19506;51.040;3.856;2022-07-23T04:42:38;4.78;;;4.00;;
33148;SDS011;19506;51.040;3.856;2022-07-23T04:45:04;4.95;;;4.40;;
33148;SDS011;19506;51.040;3.856;2022-07-23T04:47:30;8.63;;;4.10;;
33148;SDS011;19506;51.040;3.856;2022-07-23T04:49:56;7.20;;;4.88;;
33148;SDS011;19506;51.040;3.856;2022-07-23T04:52:22;6.38;;;4.05;;
33148;SDS011;19506;51.040;3.856;2022-07-23T04:54:48;5.55;;;4.25;;
33148;SDS011;19506;51.040;3.856;2022-07-23T04:57:15;6.72;;;4.85;;
33148;SDS011;19506;51.040;3.856;2022-07-23T04:59:40;9.98;;;4.50;;
33148;SDS011;19506;51.040;3.856;2022-07-23T05:02:06;6.95;;;4.78;;
33148;SDS011;19506;51.040;3.856;2022-07-23T05:04:32;6.47;;;5.00;;
33148;SDS011;19506;51.040;3.856;2022-07-23T05:06:58;4.65;;;3.60;;
33148;SDS011;19506;51.040;3.856;2022-07-23T05:09:24;5.82;;;3.90;;
33148;SDS011;19506;51.040;3.856;2022-07-23T05:11:50;8.02;;;5.68;;
33148;SDS011;19506;51.040;3.856;2022-07-23T05:14:15;6.85;;;5.20;;
33148;SDS011;19506;51.040;3.856;2022-07-23T05:16:41;7.20;;;5.10;;
33148;SDS011;19506;51.040;3.856;2022-07-23T05:19:07;11.07;;;5.72;;
33148;SDS011;19506;51.040;3.856;2022-07-23T05:21:33;8.98;;;5.65;;
33148;SDS011;19506;51.040;3.856;2022-07-23T05:23:59;6.63;;;5.10;;
33148;SDS011;19506;51.040;3.856;2022-07-23T05:26:25;5.25;;;4.60;;
33148;SDS011;19506;51.040;3.856;2022-07-23T05:28:50;7.20;;;4.93;;
33148;SDS011;19506;51.040;3.856;2022-07-23T05:31:16;9.25;;;5.32;;
33148;SDS011;19506;51.040;3.856;2022-07-23T05:33:43;5.95;;;4.78;;
33148;SDS011;19506;51.040;3.856;2022-07-23T05:36:08;7.20;;;5.18;;
33148;SDS011;19506;51.040;3.856;2022-07-23T05:38:35;10.57;;;6.15;;
33148;SDS011;19506;51.040;3.856;2022-07-23T05:41:01;10.07;;;6.22;;
33148;SDS011;19506;51.040;3.856;2022-07-23T05:43:27;7.50;;;4.85;;
33148;SDS011;19506;51.040;3.856;2022-07-23T05:45:54;5.57;;;4.05;;
33148;SDS011;19506;51.040;3.856;2022-07-23T05:48:20;7.50;;;6.25;;
33148;SDS011;19506;51.040;3.856;2022-07-23T05:50:46;7.65;;;4.95;;
33148;SDS011;19506;51.040;3.856;2022-07-23T05:53:12;8.50;;;5.82;;
33148;SDS011;19506;51.040;3.856;2022-07-23T05:55:38;10.52;;;5.32;;
33148;SDS011;19506;51.040;3.856;2022-07-23T05:58:04;6.20;;;4.68;;
33148;SDS011;19506;51.040;3.856;2022-07-23T06:00:30;6.45;;;4.63;;
33148;SDS011;19506;51.040;3.856;2022-07-23T06:02:56;7.20;;;4.53;;
33148;SDS011;19506;51.040;3.856;2022-07-23T06:05:22;7.90;;;4.63;;
33148;SDS011;19506;51.040;3.856;2022-07-23T06:07:48;6.15;;;5.03;;
33148;SDS011;19506;51.040;3.856;2022-07-23T06:10:14;7.68;;;5.68;;
33148;SDS011;19506;51.040;3.856;2022-07-23T06:12:40;5.50;;;4.18;;
33148;SDS011;19506;51.040;3.856;2022-07-23T06:15:06;7.93;;;5.28;;
33148;SDS011;19506;51.040;3.856;2022-07-23T06:17:32;13.50;;;4.80;;
33148;SDS011;19506;51.040;3.856;2022-07-23T06:19:58;8.13;;;4.72;;
33148;SDS011;19506;51.040;3.856;2022-07-23T06:22:23;8.38;;;5.10;;
33148;SDS011;19506;51.040;3.856;2022-07-23T06:24:49;5.05;;;3.67;;
33148;SDS011;19506;51.040;3.856;2022-07-23T06:27:16;7.97;;;4.55;;
33148;SDS011;19506;51.040;3.856;2022-07-23T06:29:43;5.60;;;3.47;;
33148;SDS011;19506;51.040;3.856;2022-07-23T06:32:08;4.10;;;3.13;;
33148;SDS011;19506;51.040;3.856;2022-07-23T06:34:34;6.63;;;4.70;;
33148;SDS011;19506;51.040;3.856;2022-07-23T06:37:00;5.97;;;4.10;;
33148;SDS011;19506;51.040;3.856;2022-07-23T06:39:25;7.07;;;5.30;;
33148;SDS011;19506;51.040;3.856;2022-07-23T06:41:51;10.32;;;6.15;;
33148;SDS011;19506;51.040;3.856;2022-07-23T06:44:17;9.27;;;4.82;;
33148;SDS011;19506;51.040;3.856;2022-07-23T06:46:43;8.32;;;4.63;;
33148;SDS011;19506;51.040;3.856;2022-07-23T06:49:08;6.40;;;5.35;;
33148;SDS011;19506;51.040;3.856;2022-07-23T06:51:34;7.88;;;3.88;;
33148;SDS011;19506;51.040;3.856;2022-07-23T06:54:00;2.58;;;2.17;;
33148;SDS011;19506;51.040;3.856;2022-07-23T06:56:26;4.53;;;2.05;;
33148;SDS011;19506;51.040;3.856;2022-07-23T06:58:52;3.50;;;2.22;;
33148;SDS011;19506;51.040;3.856;2022-07-23T07:01:17;2.40;;;2.05;;
33148;SDS011;19506;51.040;3.856;2022-07-23T07:03:43;6.10;;;3.47;;
33148;SDS011;19506;51.040;3.856;2022-07-23T07:06:09;6.55;;;2.55;;
33148;SDS011;19506;51.040;3.856;2022-07-23T07:08:35;9.15;;;4.28;;
33148;SDS011;19506;51.040;3.856;2022-07-23T07:11:00;7.70;;;4.03;;
33148;SDS011;19506;51.040;3.856;2022-07-23T07:13:26;9.10;;;5.55;;
33148;SDS011;19506;51.040;3.856;2022-07-23T07:15:52;7.25;;;5.13;;
33148;SDS011;19506;51.040;3.856;2022-07-23T07:18:17;8.88;;;2.97;;
33148;SDS011;19506;51.040;3.856;2022-07-23T07:20:43;12.85;;;7.38;;
33148;SDS011;19506;51.040;3.856;2022-07-23T07:23:09;12.65;;;3.42;;
33148;SDS011;19506;51.040;3.856;2022-07-23T07:25:35;5.38;;;3.08;;
33148;SDS011;19506;51.040;3.856;2022-07-23T07:28:00;10.60;;;3.53;;
33148;SDS011;19506;51.040;3.856;2022-07-23T07:30:26;6.95;;;4.95;;
33148;SDS011;19506;51.040;3.856;2022-07-23T07:32:52;8.38;;;5.93;;
33148;SDS011;19506;51.040;3.856;2022-07-23T07:35:17;13.55;;;5.93;;
33148;SDS011;19506;51.040;3.856;2022-07-23T07:37:43;15.32;;;7.45;;
33148;SDS011;19506;51.040;3.856;2022-07-23T07:40:09;20.23;;;4.57;;
33148;SDS011;19506;51.040;3.856;2022-07-23T07:42:35;10.20;;;4.25;;
33148;SDS011;19506;51.040;3.856;2022-07-23T07:45:12;11.93;;;7.10;;
33148;SDS011;19506;51.040;3.856;2022-07-23T07:47:38;10.68;;;5.97;;
33148;SDS011;19506;51.040;3.856;2022-07-23T07:50:04;14.98;;;6.50;;
33148;SDS011;19506;51.040;3.856;2022-07-23T07:52:30;9.60;;;4.05;;
33148;SDS011;19506;51.040;3.856;2022-07-23T07:54:55;13.25;;;4.38;;
33148;SDS011;19506;51.040;3.856;2022-07-23T07:57:21;6.95;;;3.92;;
33148;SDS011;19506;51.040;3.856;2022-07-23T07:59:47;13.27;;;3.65;;
33148;SDS011;19506;51.040;3.856;2022-07-23T08:02:12;7.80;;;3.97;;
33148;SDS011;19506;51.040;3.856;2022-07-23T08:04:38;13.70;;;6.20;;
33148;SDS011;19506;51.040;3.856;2022-07-23T08:07:04;12.90;;;6.43;;
33148;SDS011;19506;51.040;3.856;2022-07-23T08:09:29;11.60;;;5.60;;
33148;SDS011;19506;51.040;3.856;2022-07-23T08:11:55;19.67;;;6.63;;
33148;SDS011;19506;51.040;3.856;2022-07-23T08:14:21;11.55;;;4.90;;
33148;SDS011;19506;51.040;3.856;2022-07-23T08:16:46;11.68;;;3.92;;
33148;SDS011;19506;51.040;3.856;2022-07-23T08:19:12;14.82;;;5.68;;
33148;SDS011;19506;51.040;3.856;2022-07-23T08:21:38;13.93;;;5.07;;
33148;SDS011;19506;51.040;3.856;2022-07-23T08:24:03;13.80;;;5.70;;
33148;SDS011;19506;51.040;3.856;2022-07-23T08:26:29;6.85;;;4.38;;
33148;SDS011;19506;51.040;3.856;2022-07-23T08:28:55;9.88;;;5.22;;
33148;SDS011;19506;51.040;3.856;2022-07-23T08:31:20;10.82;;;4.18;;
33148;SDS011;19506;51.040;3.856;2022-07-23T08:33:46;12.52;;;5.78;;
33148;SDS011;19506;51.040;3.856;2022-07-23T08:36:12;10.63;;;4.32;;
33148;SDS011;19506;51.040;3.856;2022-07-23T08:38:37;8.77;;;4.20;;
33148;SDS011;19506;51.040;3.856;2022-07-23T08:41:03;12.80;;;3.75;;
33148;SDS011;19506;51.040;3.856;2022-07-23T08:43:32;7.88;;;3.92;;
33148;SDS011;19506;51.040;3.856;2022-07-23T08:46:01;7.18;;;5.00;;
33148;SDS011;19506;51.040;3.856;2022-07-23T08:48:31;9.25;;;4.78;;
33148;SDS011;19506;51.040;3.856;2022-07-23T08:50:59;12.18;;;5.00;;
33148;SDS011;19506;51.040;3.856;2022-07-23T08:53:26;10.82;;;4.97;;
33148;SDS011;19506;51.040;3.856;2022-07-23T08:55:54;9.43;;;3.88;;
33148;SDS011;19506;51.040;3.856;2022-07-23T08:58:21;9.15;;;5.53;;
33148;SDS011;19506;51.040;3.856;2022-07-23T09:00:47;13.73;;;5.78;;
33148;SDS011;19506;51.040;3.856;2022-07-23T09:03:18;13.32;;;6.40;;
33148;SDS011;19506;51.040;3.856;2022-07-23T09:05:46;9.13;;;4.88;;
33148;SDS011;19506;51.040;3.856;2022-07-23T09:08:13;10.40;;;5.15;;
33148;SDS011;19506;51.040;3.856;2022-07-23T09:10:49;11.77;;;5.53;;
33148;SDS011;19506;51.040;3.856;2022-07-23T09:13:33;9.02;;;5.22;;
33148;SDS011;19506;51.040;3.856;2022-07-23T09:16:31;14.30;;;5.82;;
33148;SDS011;19506;51.040;3.856;2022-07-23T09:19:01;10.30;;;4.70;;
33148;SDS011;19506;51.040;3.856;2022-07-23T09:21:31;9.52;;;5.15;;
33148;SDS011;19506;51.040;3.856;2022-07-23T09:23:59;10.00;;;6.15;;
33148;SDS011;19506;51.040;3.856;2022-07-23T09:31:54;11.70;;;4.03;;
33148;SDS011;19506;51.040;3.856;2022-07-23T09:34:20;14.00;;;4.22;;
33148;SDS011;19506;51.040;3.856;2022-07-23T09:37:35;12.40;;;3.80;;
33148;SDS011;19506;51.040;3.856;2022-07-23T09:39:44;11.07;;;3.80;;
33148;SDS011;19506;51.040;3.856;2022-07-23T09:44:50;12.75;;;4.13;;
33148;SDS011;19506;51.040;3.856;2022-07-23T09:47:21;13.70;;;4.32;;
33148;SDS011;19506;51.040;3.856;2022-07-23T09:50:04;10.98;;;3.85;;
33148;SDS011;19506;51.040;3.856;2022-07-23T09:52:43;10.43;;;4.13;;
33148;SDS011;19506;51.040;3.856;2022-07-23T09:55:12;8.18;;;3.47;;
33148;SDS011;19506;51.040;3.856;2022-07-23T09:57:39;10.38;;;4.13;;
33148;SDS011;19506;51.040;3.856;2022-07-23T10:00:06;9.23;;;3.55;;
33148;SDS011;19506;51.040;3.856;2022-07-23T10:02:35;10.27;;;3.45;;
33148;SDS011;19506;51.040;3.856;2022-07-23T10:05:01;10.60;;;3.20;;
33148;SDS011;19506;51.040;3.856;2022-07-23T10:07:28;6.18;;;3.53;;
33148;SDS011;19506;51.040;3.856;2022-07-23T10:09:58;6.88;;;4.25;;
33148;SDS011;19506;51.040;3.856;2022-07-23T10:12:25;16.52;;;4.97;;
33148;SDS011;19506;51.040;3.856;2022-07-23T10:15:09;9.70;;;3.95;;
33148;SDS011;19506;51.040;3.856;2022-07-23T10:17:35;9.63;;;3.92;;
33148;SDS011;19506;51.040;3.856;2022-07-23T10:20:02;15.60;;;4.00;;
33148;SDS011;19506;51.040;3.856;2022-07-23T10:22:30;21.45;;;5.25;;
33148;SDS011;19506;51.040;3.856;2022-07-23T10:38:25;6.78;;;3.45;;
33148;SDS011;19506;51.040;3.856;2022-07-23T10:40:59;16.55;;;3.97;;
33148;SDS011;19506;51.040;3.856;2022-07-23T10:43:27;18.48;;;3.92;;
33148;SDS011;19506;51.040;3.856;2022-07-23T10:45:53;11.77;;;4.57;;
33148;SDS011;19506;51.040;3.856;2022-07-23T10:48:24;13.98;;;5.20;;
33148;SDS011;19506;51.040;3.856;2022-07-23T10:51:11;11.45;;;4.65;;
33148;SDS011;19506;51.040;3.856;2022-07-23T10:56:17;14.77;;;3.53;;
33148;SDS011;19506;51.040;3.856;2022-07-23T10:59:03;15.15;;;3.85;;
33148;SDS011;19506;51.040;3.856;2022-07-23T11:01:36;11.70;;;3.80;;
33148;SDS011;19506;51.040;3.856;2022-07-23T11:04:04;8.55;;;3.03;;
33148;SDS011;19506;51.040;3.856;2022-07-23T11:09:26;10.35;;;3.00;;
33148;SDS011;19506;51.040;3.856;2022-07-23T11:25:12;5.75;;;2.58;;
33148;SDS011;19506;51.040;3.856;2022-07-23T11:27:47;4.00;;;2.35;;
33148;SDS011;19506;51.040;3.856;2022-07-23T11:33:38;5.00;;;2.50;;
33148;SDS011;19506;51.040;3.856;2022-07-23T11:35:42;10.63;;;2.73;;
33148;SDS011;19506;51.040;3.856;2022-07-23T11:38:17;8.40;;;2.63;;
33148;SDS011;19506;51.040;3.856;2022-07-23T11:40:52;8.15;;;2.72;;
33148;SDS011;19506;51.040;3.856;2022-07-23T11:43:20;13.20;;;2.97;;
33148;SDS011;19506;51.040;3.856;2022-07-23T11:45:48;11.80;;;3.58;;
33148;SDS011;19506;51.040;3.856;2022-07-23T11:48:21;14.00;;;2.90;;
33148;SDS011;19506;51.040;3.856;2022-07-23T11:50:51;6.15;;;2.70;;
33148;SDS011;19506;51.040;3.856;2022-07-23T11:53:24;12.32;;;2.33;;
33148;SDS011;19506;51.040;3.856;2022-07-23T11:55:53;7.40;;;2.65;;
33148;SDS011;19506;51.040;3.856;2022-07-23T11:58:20;8.13;;;2.30;;
33148;SDS011;19506;51.040;3.856;2022-07-23T12:00:46;7.13;;;2.88;;
33148;SDS011;19506;51.040;3.856;2022-07-23T12:03:12;9.93;;;3.00;;
33148;SDS011;19506;51.040;3.856;2022-07-23T12:05:39;8.35;;;2.33;;
33148;SDS011;19506;51.040;3.856;2022-07-23T12:08:08;3.58;;;2.10;;
33148;SDS011;19506;51.040;3.856;2022-07-23T12:10:42;4.88;;;2.03;;
33148;SDS011;19506;51.040;3.856;2022-07-23T12:15:41;4.35;;;2.67;;
33148;SDS011;19506;51.040;3.856;2022-07-23T12:18:08;3.50;;;2.28;;
33148;SDS011;19506;51.040;3.856;2022-07-23T12:20:37;8.35;;;2.80;;
33148;SDS011;19506;51.040;3.856;2022-07-23T12:23:15;9.07;;;2.45;;
33148;SDS011;19506;51.040;3.856;2022-07-23T12:25:42;7.72;;;2.20;;
33148;SDS011;19506;51.040;3.856;2022-07-23T12:28:14;8.60;;;3.03;;
33148;SDS011;19506;51.040;3.856;2022-07-23T12:30:46;8.23;;;3.30;;
33148;SDS011;19506;51.040;3.856;2022-07-23T12:33:32;5.63;;;2.60;;
33148;SDS011;19506;51.040;3.856;2022-07-23T12:36:00;7.43;;;3.28;;
33148;SDS011;19506;51.040;3.856;2022-07-23T12:38:35;14.77;;;3.03;;
33148;SDS011;19506;51.040;3.856;2022-07-23T12:41:06;8.05;;;2.70;;
33148;SDS011;19506;51.040;3.856;2022-07-23T12:43:32;7.32;;;2.63;;
33148;SDS011;19506;51.040;3.856;2022-07-23T12:51:19;9.77;;;2.47;;
33148;SDS011;19506;51.040;3.856;2022-07-23T12:53:57;5.88;;;2.17;;
33148;SDS011;19506;51.040;3.856;2022-07-23T12:56:29;8.13;;;2.60;;
33148;SDS011;19506;51.040;3.856;2022-07-23T12:58:58;16.10;;;2.83;;
33148;SDS011;19506;51.040;3.856;2022-07-23T13:09:18;5.90;;;3.03;;
33148;SDS011;19506;51.040;3.856;2022-07-23T13:11:46;5.63;;;2.72;;
33148;SDS011;19506;51.040;3.856;2022-07-23T13:14:14;7.25;;;2.40;;
33148;SDS011;19506;51.040;3.856;2022-07-23T13:16:41;10.57;;;2.20;;
33148;SDS011;19506;51.040;3.856;2022-07-23T13:19:07;40.30;;;7.95;;
33148;SDS011;19506;51.040;3.856;2022-07-23T13:21:33;29.42;;;8.05;;
33148;SDS011;19506;51.040;3.856;2022-07-23T13:23:58;30.13;;;7.63;;
33148;SDS011;19506;51.040;3.856;2022-07-23T13:26:25;28.35;;;7.28;;
33148;SDS011;19506;51.040;3.856;2022-07-23T13:28:51;28.25;;;9.40;;
33148;SDS011;19506;51.040;3.856;2022-07-23T13:31:17;33.78;;;9.25;;
33148;SDS011;19506;51.040;3.856;2022-07-23T13:33:43;34.88;;;8.38;;
33148;SDS011;19506;51.040;3.856;2022-07-23T13:36:09;36.00;;;8.70;;
33148;SDS011;19506;51.040;3.856;2022-07-23T13:38:37;18.02;;;6.68;;
33148;SDS011;19506;51.040;3.856;2022-07-23T13:41:04;33.55;;;7.60;;
33148;SDS011;19506;51.040;3.856;2022-07-23T13:43:30;35.80;;;8.88;;
33148;SDS011;19506;51.040;3.856;2022-07-23T13:45:56;47.15;;;12.02;;
33148;SDS011;19506;51.040;3.856;2022-07-23T13:48:22;43.03;;;10.73;;
33148;SDS011;19506;51.040;3.856;2022-07-23T13:50:48;41.97;;;11.48;;
33148;SDS011;19506;51.040;3.856;2022-07-23T13:53:16;38.55;;;10.98;;
33148;SDS011;19506;51.040;3.856;2022-07-23T13:55:46;42.47;;;10.27;;
33148;SDS011;19506;51.040;3.856;2022-07-23T13:58:13;31.83;;;8.75;;
33148;SDS011;19506;51.040;3.856;2022-07-23T14:00:40;34.03;;;8.63;;
33148;SDS011;19506;51.040;3.856;2022-07-23T14:03:07;26.65;;;8.55;;
33148;SDS011;19506;51.040;3.856;2022-07-23T14:05:34;25.42;;;7.10;;
33148;SDS011;19506;51.040;3.856;2022-07-23T14:07:59;24.02;;;6.32;;
33148;SDS011;19506;51.040;3.856;2022-07-23T14:10:25;14.23;;;6.28;;
33148;SDS011;19506;51.040;3.856;2022-07-23T14:12:51;17.20;;;6.15;;
33148;SDS011;19506;51.040;3.856;2022-07-23T14:15:21;19.27;;;5.43;;
33148;SDS011;19506;51.040;3.856;2022-07-23T14:17:47;14.15;;;4.82;;
33148;SDS011;19506;51.040;3.856;2022-07-23T14:20:13;16.15;;;5.55;;
33148;SDS011;19506;51.040;3.856;2022-07-23T14:22:39;12.18;;;4.70;;
33148;SDS011;19506;51.040;3.856;2022-07-23T14:25:05;17.10;;;5.93;;
33148;SDS011;19506;51.040;3.856;2022-07-23T14:27:32;12.63;;;5.40;;
33148;SDS011;19506;51.040;3.856;2022-07-23T14:29:57;13.93;;;5.13;;
33148;SDS011;19506;51.040;3.856;2022-07-23T14:32:24;20.25;;;6.60;;
33148;SDS011;19506;51.040;3.856;2022-07-23T14:34:50;21.33;;;6.57;;
33148;SDS011;19506;51.040;3.856;2022-07-23T14:37:16;13.13;;;5.25;;
33148;SDS011;19506;51.040;3.856;2022-07-23T14:39:42;14.35;;;5.60;;
33148;SDS011;19506;51.040;3.856;2022-07-23T14:42:09;16.40;;;5.38;;
33148;SDS011;19506;51.040;3.856;2022-07-23T14:44:35;9.38;;;4.28;;
33148;SDS011;19506;51.040;3.856;2022-07-23T14:47:02;10.95;;;4.85;;
33148;SDS011;19506;51.040;3.856;2022-07-23T14:49:29;9.23;;;4.70;;
33148;SDS011;19506;51.040;3.856;2022-07-23T14:51:58;11.68;;;4.80;;
33148;SDS011;19506;51.040;3.856;2022-07-23T14:54:27;14.40;;;4.78;;
33148;SDS011;19506;51.040;3.856;2022-07-23T14:56:54;9.63;;;3.90;;
33148;SDS011;19506;51.040;3.856;2022-07-23T14:59:20;15.20;;;3.63;;
33148;SDS011;19506;51.040;3.856;2022-07-23T15:01:46;13.35;;;4.07;;
33148;SDS011;19506;51.040;3.856;2022-07-23T15:04:13;8.82;;;4.30;;
33148;SDS011;19506;51.040;3.856;2022-07-23T15:06:38;10.32;;;4.10;;
33148;SDS011;19506;51.040;3.856;2022-07-23T15:09:05;26.27;;;6.38;;
33148;SDS011;19506;51.040;3.856;2022-07-23T15:11:30;21.83;;;5.40;;
33148;SDS011;19506;51.040;3.856;2022-07-23T15:13:59;23.27;;;4.40;;
33148;SDS011;19506;51.040;3.856;2022-07-23T15:16:25;9.90;;;4.07;;
33148;SDS011;19506;51.040;3.856;2022-07-23T15:18:52;12.65;;;4.50;;
33148;SDS011;19506;51.040;3.856;2022-07-23T15:21:18;16.27;;;5.45;;
33148;SDS011;19506;51.040;3.856;2022-07-23T15:23:43;19.67;;;5.88;;
33148;SDS011;19506;51.040;3.856;2022-07-23T15:26:09;19.33;;;6.28;;
33148;SDS011;19506;51.040;3.856;2022-07-23T15:28:35;7.00;;;4.05;;
33148;SDS011;19506;51.040;3.856;2022-07-23T15:31:02;10.60;;;4.22;;
33148;SDS011;19506;51.040;3.856;2022-07-23T15:33:28;10.27;;;4.47;;
33148;SDS011;19506;51.040;3.856;2022-07-23T15:35:54;5.43;;;3.80;;
33148;SDS011;19506;51.040;3.856;2022-07-23T15:38:21;15.02;;;3.72;;
33148;SDS011;19506;51.040;3.856;2022-07-23T15:40:47;8.18;;;4.18;;
33148;SDS011;19506;51.040;3.856;2022-07-23T15:43:13;12.30;;;4.25;;
33148;SDS011;19506;51.040;3.856;2022-07-23T15:45:39;9.88;;;4.80;;
33148;SDS011;19506;51.040;3.856;2022-07-23T15:48:05;5.35;;;3.63;;
33148;SDS011;19506;51.040;3.856;2022-07-23T15:50:31;6.63;;;3.90;;
33148;SDS011;19506;51.040;3.856;2022-07-23T15:52:57;7.40;;;4.18;;
33148;SDS011;19506;51.040;3.856;2022-07-23T15:55:23;13.38;;;4.70;;
33148;SDS011;19506;51.040;3.856;2022-07-23T15:57:49;8.95;;;3.75;;
33148;SDS011;19506;51.040;3.856;2022-07-23T16:00:15;6.97;;;3.78;;
33148;SDS011;19506;51.040;3.856;2022-07-23T16:02:41;6.35;;;3.95;;
33148;SDS011;19506;51.040;3.856;2022-07-23T16:05:07;8.35;;;4.20;;
33148;SDS011;19506;51.040;3.856;2022-07-23T16:07:33;6.45;;;4.13;;
33148;SDS011;19506;51.040;3.856;2022-07-23T16:10:02;7.43;;;3.67;;
33148;SDS011;19506;51.040;3.856;2022-07-23T16:12:31;12.50;;;3.80;;
33148;SDS011;19506;51.040;3.856;2022-07-23T16:14:57;12.98;;;5.07;;
33148;SDS011;19506;51.040;3.856;2022-07-23T16:17:22;9.07;;;4.22;;
33148;SDS011;19506;51.040;3.856;2022-07-23T16:19:48;6.85;;;4.65;;
33148;SDS011;19506;51.040;3.856;2022-07-23T16:22:14;7.03;;;4.18;;
33148;SDS011;19506;51.040;3.856;2022-07-23T16:24:41;7.60;;;4.03;;
33148;SDS011;19506;51.040;3.856;2022-07-23T16:27:08;7.80;;;4.53;;
33148;SDS011;19506;51.040;3.856;2022-07-23T16:29:33;9.43;;;5.40;;
33148;SDS011;19506;51.040;3.856;2022-07-23T16:31:59;6.70;;;5.15;;
33148;SDS011;19506;51.040;3.856;2022-07-23T16:34:25;8.45;;;5.13;;
33148;SDS011;19506;51.040;3.856;2022-07-23T16:36:50;16.83;;;6.47;;
33148;SDS011;19506;51.040;3.856;2022-07-23T16:39:16;12.40;;;5.18;;
33148;SDS011;19506;51.040;3.856;2022-07-23T16:41:42;13.18;;;5.15;;
33148;SDS011;19506;51.040;3.856;2022-07-23T16:44:08;6.45;;;4.78;;
33148;SDS011;19506;51.040;3.856;2022-07-23T16:46:34;13.98;;;5.30;;
33148;SDS011;19506;51.040;3.856;2022-07-23T16:49:00;12.13;;;4.70;;
33148;SDS011;19506;51.040;3.856;2022-07-23T16:51:26;9.68;;;5.65;;
33148;SDS011;19506;51.040;3.856;2022-07-23T16:53:52;13.48;;;5.03;;
33148;SDS011;19506;51.040;3.856;2022-07-23T16:56:20;11.82;;;5.00;;
33148;SDS011;19506;51.040;3.856;2022-07-23T16:58:47;10.00;;;5.13;;
33148;SDS011;19506;51.040;3.856;2022-07-23T17:01:14;14.35;;;5.68;;
33148;SDS011;19506;51.040;3.856;2022-07-23T17:03:40;18.48;;;6.55;;
33148;SDS011;19506;51.040;3.856;2022-07-23T17:06:06;5.90;;;4.85;;
33148;SDS011;19506;51.040;3.856;2022-07-23T17:08:31;15.35;;;5.88;;
33148;SDS011;19506;51.040;3.856;2022-07-23T17:10:57;9.55;;;5.22;;